sensor_id;sensor_type;location;lat;lon;timestamp;P1;durP1;ratioP1;P2;durP2;ratioP2
30458;SDS011;17254;50.976;7.034;2022-11-20T00:00:03;21.33;;;15.32;;
30458;SDS011;17254;50.976;7.034;2022-11-20T00:00:19;21.76;;;15.50;;
30458;SDS011;17254;50.976;7.034;2022-11-20T00:00:25;21.57;;;15.37;;
30458;SDS011;17254;50.976;7.034;2022-11-20T00:00:31;21.38;;;15.60;;
30458;SDS011;17254;50.976;7.034;2022-11-20T00:00:37;21.25;;;15.63;;
30458;SDS011;17254;50.976;7.034;2022-11-20T00:00:43;20.67;;;15.20;;
30458;SDS011;17254;50.976;7.034;2022-11-20T00:00:49;20.52;;;15.07;;
30458;SDS011;17254;50.976;7.034;2022-11-20T00:00:55;20.70;;;15.23;;
30458;SDS011;17254;50.976;7.034;2022-11-20T00:01:04;20.80;;;15.03;;
30458;SDS011;17254;50.976;7.034;2022-11-20T00:01:11;20.70;;;14.90;;
30458;SDS011;17254;50.976;7.034;2022-11-20T00:01:19;20.98;;;15.43;;
30458;SDS011;17254;50.976;7.034;2022-11-20T00:01:27;21.47;;;15.47;;
30458;SDS011;17254;50.976;7.034;2022-11-20T00:01:33;21.42;;;15.52;;
30458;SDS011;17254;50.976;7.034;2022-11-20T00:01:39;21.27;;;15.63;;
30458;SDS011;17254;50.976;7.034;2022-11-20T00:01:45;21.60;;;15.55;;
30458;SDS011;17254;50.976;7.034;2022-11-20T00:01:51;21.95;;;15.95;;
30458;SDS011;17254;50.976;7.034;2022-11-20T00:01:57;21.40;;;15.60;;
30458;SDS011;17254;50.976;7.034;2022-11-20T00:02:03;21.38;;;15.38;;
30458;SDS011;17254;50.976;7.034;2022-11-20T00:02:09;21.52;;;15.35;;
30458;SDS011;17254;50.976;7.034;2022-11-20T00:02:15;21.35;;;15.23;;
30458;SDS011;17254;50.976;7.034;2022-11-20T00:02:22;21.28;;;14.98;;
30458;SDS011;17254;50.976;7.034;2022-11-20T00:02:28;21.50;;;15.17;;
30458;SDS011;17254;50.976;7.034;2022-11-20T00:02:33;21.73;;;15.57;;
30458;SDS011;17254;50.976;7.034;2022-11-20T00:02:39;21.73;;;15.75;;
30458;SDS011;17254;50.976;7.034;2022-11-20T00:02:46;21.62;;;15.96;;
30458;SDS011;17254;50.976;7.034;2022-11-20T00:02:52;22.30;;;16.47;;
30458;SDS011;17254;50.976;7.034;2022-11-20T00:02:58;22.10;;;16.55;;
30458;SDS011;17254;50.976;7.034;2022-11-20T00:03:04;21.95;;;16.40;;
30458;SDS011;17254;50.976;7.034;2022-11-20T00:03:09;22.38;;;16.38;;
30458;SDS011;17254;50.976;7.034;2022-11-20T00:03:15;23.17;;;16.45;;
30458;SDS011;17254;50.976;7.034;2022-11-20T00:03:22;22.45;;;15.85;;
30458;SDS011;17254;50.976;7.034;2022-11-20T00:03:28;22.33;;;15.77;;
30458;SDS011;17254;50.976;7.034;2022-11-20T00:03:34;22.67;;;15.77;;
30458;SDS011;17254;50.976;7.034;2022-11-20T00:03:40;22.30;;;15.52;;
30458;SDS011;17254;50.976;7.034;2022-11-20T00:03:46;21.60;;;15.65;;
30458;SDS011;17254;50.976;7.034;2022-11-20T00:03:54;21.57;;;15.80;;
30458;SDS011;17254;50.976;7.034;2022-11-20T00:04:02;21.42;;;15.65;;
30458;SDS011;17254;50.976;7.034;2022-11-20T00:04:09;21.50;;;15.77;;
30458;SDS011;17254;50.976;7.034;2022-11-20T00:04:16;21.73;;;15.70;;
30458;SDS011;17254;50.976;7.034;2022-11-20T00:04:22;21.87;;;15.73;;
30458;SDS011;17254;50.976;7.034;2022-11-20T00:04:28;22.08;;;16.08;;
30458;SDS011;17254;50.976;7.034;2022-11-20T00:04:34;21.47;;;16.03;;
30458;SDS011;17254;50.976;7.034;2022-11-20T00:04:40;21.33;;;15.82;;
30458;SDS011;17254;50.976;7.034;2022-11-20T00:04:45;21.90;;;15.70;;
30458;SDS011;17254;50.976;7.034;2022-11-20T00:04:51;22.02;;;15.15;;
30458;SDS011;17254;50.976;7.034;2022-11-20T00:04:57;22.23;;;14.82;;
30458;SDS011;17254;50.976;7.034;2022-11-20T00:05:03;23.08;;;15.13;;
30458;SDS011;17254;50.976;7.034;2022-11-20T00:05:11;22.93;;;15.23;;
30458;SDS011;17254;50.976;7.034;2022-11-20T00:05:17;21.73;;;15.30;;
30458;SDS011;17254;50.976;7.034;2022-11-20T00:05:23;21.67;;;15.77;;
30458;SDS011;17254;50.976;7.034;2022-11-20T00:05:31;21.70;;;15.73;;
30458;SDS011;17254;50.976;7.034;2022-11-20T00:05:37;21.93;;;15.67;;
30458;SDS011;17254;50.976;7.034;2022-11-20T00:05:43;22.53;;;15.73;;
30458;SDS011;17254;50.976;7.034;2022-11-20T00:05:51;22.22;;;15.76;;
30458;SDS011;17254;50.976;7.034;2022-11-20T00:05:59;21.87;;;15.70;;
30458;SDS011;17254;50.976;7.034;2022-11-20T00:06:06;21.47;;;15.72;;
30458;SDS011;17254;50.976;7.034;2022-11-20T00:06:14;21.69;;;15.89;;
30458;SDS011;17254;50.976;7.034;2022-11-20T00:06:23;22.64;;;15.91;;
30458;SDS011;17254;50.976;7.034;2022-11-20T00:06:31;23.28;;;15.90;;
30458;SDS011;17254;50.976;7.034;2022-11-20T00:06:37;22.65;;;15.68;;
30458;SDS011;17254;50.976;7.034;2022-11-20T00:06:43;22.10;;;15.45;;
30458;SDS011;17254;50.976;7.034;2022-11-20T00:06:49;22.63;;;15.38;;
30458;SDS011;17254;50.976;7.034;2022-11-20T00:06:55;22.88;;;15.45;;
30458;SDS011;17254;50.976;7.034;2022-11-20T00:07:00;22.63;;;15.25;;
30458;SDS011;17254;50.976;7.034;2022-11-20T00:07:07;23.77;;;15.63;;
30458;SDS011;17254;50.976;7.034;2022-11-20T00:07:12;24.45;;;15.90;;
30458;SDS011;17254;50.976;7.034;2022-11-20T00:07:19;23.50;;;15.75;;
30458;SDS011;17254;50.976;7.034;2022-11-20T00:07:25;23.10;;;15.90;;
30458;SDS011;17254;50.976;7.034;2022-11-20T00:07:31;22.76;;;16.10;;
30458;SDS011;17254;50.976;7.034;2022-11-20T00:07:37;22.67;;;16.00;;
30458;SDS011;17254;50.976;7.034;2022-11-20T00:07:43;21.90;;;15.55;;
30458;SDS011;17254;50.976;7.034;2022-11-20T00:07:50;21.83;;;15.53;;
30458;SDS011;17254;50.976;7.034;2022-11-20T00:07:56;21.35;;;15.10;;
30458;SDS011;17254;50.976;7.034;2022-11-20T00:08:02;21.63;;;15.05;;
30458;SDS011;17254;50.976;7.034;2022-11-20T00:08:08;20.80;;;14.75;;
30458;SDS011;17254;50.976;7.034;2022-11-20T00:08:14;21.06;;;14.86;;
30458;SDS011;17254;50.976;7.034;2022-11-20T00:08:20;20.67;;;14.87;;
30458;SDS011;17254;50.976;7.034;2022-11-20T00:08:26;20.45;;;14.63;;
30458;SDS011;17254;50.976;7.034;2022-11-20T00:08:32;20.60;;;14.75;;
30458;SDS011;17254;50.976;7.034;2022-11-20T00:08:38;21.35;;;15.10;;
30458;SDS011;17254;50.976;7.034;2022-11-20T00:08:44;21.17;;;15.23;;
30458;SDS011;17254;50.976;7.034;2022-11-20T00:08:53;21.23;;;15.57;;
30458;SDS011;17254;50.976;7.034;2022-11-20T00:09:00;21.34;;;15.69;;
30458;SDS011;17254;50.976;7.034;2022-11-20T00:09:08;20.80;;;15.13;;
30458;SDS011;17254;50.976;7.034;2022-11-20T00:09:15;20.80;;;15.01;;
30458;SDS011;17254;50.976;7.034;2022-11-20T00:09:22;22.12;;;14.88;;
30458;SDS011;17254;50.976;7.034;2022-11-20T00:09:28;22.73;;;15.13;;
30458;SDS011;17254;50.976;7.034;2022-11-20T00:09:37;23.43;;;15.70;;
30458;SDS011;17254;50.976;7.034;2022-11-20T00:09:43;23.23;;;15.80;;
30458;SDS011;17254;50.976;7.034;2022-11-20T00:09:49;22.80;;;15.82;;
30458;SDS011;17254;50.976;7.034;2022-11-20T00:09:55;22.25;;;15.68;;
30458;SDS011;17254;50.976;7.034;2022-11-20T00:10:01;21.93;;;15.50;;
30458;SDS011;17254;50.976;7.034;2022-11-20T00:10:07;21.80;;;15.38;;
30458;SDS011;17254;50.976;7.034;2022-11-20T00:10:13;22.27;;;15.40;;
30458;SDS011;17254;50.976;7.034;2022-11-20T00:10:19;22.65;;;15.68;;
30458;SDS011;17254;50.976;7.034;2022-11-20T00:10:25;22.42;;;15.55;;
30458;SDS011;17254;50.976;7.034;2022-11-20T00:10:31;22.00;;;15.27;;
30458;SDS011;17254;50.976;7.034;2022-11-20T00:10:37;21.95;;;15.43;;
30458;SDS011;17254;50.976;7.034;2022-11-20T00:10:44;21.97;;;15.37;;
30458;SDS011;17254;50.976;7.034;2022-11-20T00:10:51;21.96;;;15.06;;
30458;SDS011;17254;50.976;7.034;2022-11-20T00:10:57;22.33;;;15.02;;
30458;SDS011;17254;50.976;7.034;2022-11-20T00:11:07;23.06;;;14.88;;
30458;SDS011;17254;50.976;7.034;2022-11-20T00:11:15;22.60;;;14.53;;
30458;SDS011;17254;50.976;7.034;2022-11-20T00:11:23;22.50;;;14.52;;
30458;SDS011;17254;50.976;7.034;2022-11-20T00:11:31;21.97;;;14.70;;
30458;SDS011;17254;50.976;7.034;2022-11-20T00:11:37;22.17;;;15.15;;
30458;SDS011;17254;50.976;7.034;2022-11-20T00:11:43;22.10;;;15.30;;
30458;SDS011;17254;50.976;7.034;2022-11-20T00:11:49;21.88;;;15.38;;
30458;SDS011;17254;50.976;7.034;2022-11-20T00:11:55;22.25;;;15.57;;
30458;SDS011;17254;50.976;7.034;2022-11-20T00:12:00;22.23;;;15.73;;
30458;SDS011;17254;50.976;7.034;2022-11-20T00:12:06;21.27;;;15.35;;
30458;SDS011;17254;50.976;7.034;2022-11-20T00:12:14;20.84;;;15.26;;
30458;SDS011;17254;50.976;7.034;2022-11-20T00:12:20;20.83;;;15.25;;
30458;SDS011;17254;50.976;7.034;2022-11-20T00:12:26;20.25;;;14.82;;
30458;SDS011;17254;50.976;7.034;2022-11-20T00:12:31;19.83;;;14.43;;
30458;SDS011;17254;50.976;7.034;2022-11-20T00:12:37;19.48;;;14.38;;
30458;SDS011;17254;50.976;7.034;2022-11-20T00:12:43;20.40;;;14.63;;
30458;SDS011;17254;50.976;7.034;2022-11-20T00:12:49;20.40;;;14.73;;
30458;SDS011;17254;50.976;7.034;2022-11-20T00:12:57;20.70;;;15.03;;
30458;SDS011;17254;50.976;7.034;2022-11-20T00:13:03;21.07;;;15.27;;
30458;SDS011;17254;50.976;7.034;2022-11-20T00:13:09;21.40;;;15.16;;
30458;SDS011;17254;50.976;7.034;2022-11-20T00:13:15;21.13;;;14.98;;
30458;SDS011;17254;50.976;7.034;2022-11-20T00:13:21;21.20;;;14.70;;
30458;SDS011;17254;50.976;7.034;2022-11-20T00:13:27;21.48;;;14.68;;
30458;SDS011;17254;50.976;7.034;2022-11-20T00:13:33;22.30;;;15.00;;
30458;SDS011;17254;50.976;7.034;2022-11-20T00:13:39;21.94;;;15.10;;
30458;SDS011;17254;50.976;7.034;2022-11-20T00:13:46;21.80;;;15.10;;
30458;SDS011;17254;50.976;7.034;2022-11-20T00:13:54;20.63;;;15.27;;
30458;SDS011;17254;50.976;7.034;2022-11-20T00:14:03;20.13;;;15.09;;
30458;SDS011;17254;50.976;7.034;2022-11-20T00:14:09;19.95;;;15.20;;
30458;SDS011;17254;50.976;7.034;2022-11-20T00:14:15;19.80;;;15.10;;
30458;SDS011;17254;50.976;7.034;2022-11-20T00:14:21;19.90;;;15.05;;
30458;SDS011;17254;50.976;7.034;2022-11-20T00:14:27;20.50;;;15.20;;
30458;SDS011;17254;50.976;7.034;2022-11-20T00:14:33;20.77;;;15.05;;
30458;SDS011;17254;50.976;7.034;2022-11-20T00:14:39;21.10;;;15.18;;
30458;SDS011;17254;50.976;7.034;2022-11-20T00:14:46;21.23;;;15.40;;
30458;SDS011;17254;50.976;7.034;2022-11-20T00:14:52;21.85;;;15.43;;
30458;SDS011;17254;50.976;7.034;2022-11-20T00:14:58;22.10;;;15.57;;
30458;SDS011;17254;50.976;7.034;2022-11-20T00:15:04;22.15;;;15.57;;
30458;SDS011;17254;50.976;7.034;2022-11-20T00:15:10;22.02;;;15.56;;
30458;SDS011;17254;50.976;7.034;2022-11-20T00:15:16;22.33;;;15.65;;
30458;SDS011;17254;50.976;7.034;2022-11-20T00:15:22;21.93;;;15.63;;
30458;SDS011;17254;50.976;7.034;2022-11-20T00:15:28;22.25;;;15.40;;
30458;SDS011;17254;50.976;7.034;2022-11-20T00:15:35;22.38;;;15.42;;
30458;SDS011;17254;50.976;7.034;2022-11-20T00:15:41;22.58;;;15.27;;
30458;SDS011;17254;50.976;7.034;2022-11-20T00:15:47;22.42;;;15.05;;
30458;SDS011;17254;50.976;7.034;2022-11-20T00:15:56;22.52;;;14.95;;
30458;SDS011;17254;50.976;7.034;2022-11-20T00:16:03;22.37;;;15.37;;
30458;SDS011;17254;50.976;7.034;2022-11-20T00:16:11;22.93;;;15.40;;
30458;SDS011;17254;50.976;7.034;2022-11-20T00:16:18;22.80;;;15.30;;
30458;SDS011;17254;50.976;7.034;2022-11-20T00:16:27;22.16;;;15.10;;
30458;SDS011;17254;50.976;7.034;2022-11-20T00:16:35;21.83;;;14.87;;
30458;SDS011;17254;50.976;7.034;2022-11-20T00:16:42;21.37;;;14.93;;
30458;SDS011;17254;50.976;7.034;2022-11-20T00:16:48;21.53;;;14.93;;
30458;SDS011;17254;50.976;7.034;2022-11-20T00:16:54;23.17;;;15.50;;
30458;SDS011;17254;50.976;7.034;2022-11-20T00:17:00;22.23;;;15.40;;
30458;SDS011;17254;50.976;7.034;2022-11-20T00:17:06;21.40;;;14.98;;
30458;SDS011;17254;50.976;7.034;2022-11-20T00:17:12;20.60;;;14.73;;
30458;SDS011;17254;50.976;7.034;2022-11-20T00:17:18;20.65;;;14.95;;
30458;SDS011;17254;50.976;7.034;2022-11-20T00:17:24;19.92;;;14.77;;
30458;SDS011;17254;50.976;7.034;2022-11-20T00:17:30;19.70;;;14.75;;
30458;SDS011;17254;50.976;7.034;2022-11-20T00:17:36;19.95;;;14.88;;
30458;SDS011;17254;50.976;7.034;2022-11-20T00:17:42;20.20;;;14.95;;
30458;SDS011;17254;50.976;7.034;2022-11-20T00:17:48;20.03;;;14.57;;
30458;SDS011;17254;50.976;7.034;2022-11-20T00:17:54;19.23;;;14.23;;
30458;SDS011;17254;50.976;7.034;2022-11-20T00:18:00;20.67;;;14.57;;
30458;SDS011;17254;50.976;7.034;2022-11-20T00:18:06;21.55;;;15.00;;
30458;SDS011;17254;50.976;7.034;2022-11-20T00:18:12;21.98;;;15.05;;
30458;SDS011;17254;50.976;7.034;2022-11-20T00:18:19;22.47;;;15.37;;
30458;SDS011;17254;50.976;7.034;2022-11-20T00:18:25;23.23;;;15.55;;
30458;SDS011;17254;50.976;7.034;2022-11-20T00:18:32;22.33;;;15.30;;
30458;SDS011;17254;50.976;7.034;2022-11-20T00:18:38;22.10;;;15.22;;
30458;SDS011;17254;50.976;7.034;2022-11-20T00:18:44;22.48;;;15.32;;
30458;SDS011;17254;50.976;7.034;2022-11-20T00:18:51;22.87;;;15.20;;
30458;SDS011;17254;50.976;7.034;2022-11-20T00:18:57;23.03;;;15.33;;
30458;SDS011;17254;50.976;7.034;2022-11-20T00:19:03;23.10;;;15.40;;
30458;SDS011;17254;50.976;7.034;2022-11-20T00:19:09;23.42;;;15.40;;
30458;SDS011;17254;50.976;7.034;2022-11-20T00:19:15;24.40;;;15.75;;
30458;SDS011;17254;50.976;7.034;2022-11-20T00:19:21;24.15;;;15.93;;
30458;SDS011;17254;50.976;7.034;2022-11-20T00:19:27;24.55;;;15.70;;
30458;SDS011;17254;50.976;7.034;2022-11-20T00:19:33;24.13;;;15.45;;
30458;SDS011;17254;50.976;7.034;2022-11-20T00:19:39;24.13;;;15.43;;
30458;SDS011;17254;50.976;7.034;2022-11-20T00:19:45;22.60;;;14.93;;
30458;SDS011;17254;50.976;7.034;2022-11-20T00:19:52;21.84;;;14.56;;
30458;SDS011;17254;50.976;7.034;2022-11-20T00:19:58;21.20;;;14.90;;
30458;SDS011;17254;50.976;7.034;2022-11-20T00:20:06;20.73;;;14.67;;
30458;SDS011;17254;50.976;7.034;2022-11-20T00:20:13;20.70;;;14.37;;
30458;SDS011;17254;50.976;7.034;2022-11-20T00:20:19;20.93;;;14.57;;
30458;SDS011;17254;50.976;7.034;2022-11-20T00:20:25;21.13;;;14.27;;
30458;SDS011;17254;50.976;7.034;2022-11-20T00:20:31;21.65;;;14.05;;
30458;SDS011;17254;50.976;7.034;2022-11-20T00:20:37;22.20;;;14.75;;
30458;SDS011;17254;50.976;7.034;2022-11-20T00:20:43;21.85;;;15.18;;
30458;SDS011;17254;50.976;7.034;2022-11-20T00:20:49;21.83;;;15.35;;
30458;SDS011;17254;50.976;7.034;2022-11-20T00:21:01;21.87;;;15.90;;
30458;SDS011;17254;50.976;7.034;2022-11-20T00:21:09;21.69;;;16.06;;
30458;SDS011;17254;50.976;7.034;2022-11-20T00:21:17;22.00;;;15.43;;
30458;SDS011;17254;50.976;7.034;2022-11-20T00:21:25;21.70;;;15.43;;
30458;SDS011;17254;50.976;7.034;2022-11-20T00:21:32;21.37;;;15.33;;
30458;SDS011;17254;50.976;7.034;2022-11-20T00:21:38;21.38;;;15.32;;
30458;SDS011;17254;50.976;7.034;2022-11-20T00:21:44;21.08;;;15.55;;
30458;SDS011;17254;50.976;7.034;2022-11-20T00:21:50;20.58;;;15.60;;
30458;SDS011;17254;50.976;7.034;2022-11-20T00:21:58;20.10;;;15.33;;
30458;SDS011;17254;50.976;7.034;2022-11-20T00:22:04;20.67;;;15.13;;
30458;SDS011;17254;50.976;7.034;2022-11-20T00:22:10;20.85;;;15.00;;
30458;SDS011;17254;50.976;7.034;2022-11-20T00:22:16;21.10;;;14.87;;
30458;SDS011;17254;50.976;7.034;2022-11-20T00:22:22;21.27;;;14.98;;
30458;SDS011;17254;50.976;7.034;2022-11-20T00:22:28;21.88;;;14.93;;
30458;SDS011;17254;50.976;7.034;2022-11-20T00:22:34;21.00;;;14.82;;
30458;SDS011;17254;50.976;7.034;2022-11-20T00:22:40;20.45;;;14.82;;
30458;SDS011;17254;50.976;7.034;2022-11-20T00:22:46;20.45;;;14.68;;
30458;SDS011;17254;50.976;7.034;2022-11-20T00:22:52;21.02;;;14.78;;
30458;SDS011;17254;50.976;7.034;2022-11-20T00:22:58;20.97;;;14.87;;
30458;SDS011;17254;50.976;7.034;2022-11-20T00:23:04;20.95;;;15.02;;
30458;SDS011;17254;50.976;7.034;2022-11-20T00:23:12;21.77;;;15.47;;
30458;SDS011;17254;50.976;7.034;2022-11-20T00:23:17;21.58;;;15.45;;
30458;SDS011;17254;50.976;7.034;2022-11-20T00:23:23;20.95;;;15.30;;
30458;SDS011;17254;50.976;7.034;2022-11-20T00:23:29;20.45;;;15.25;;
30458;SDS011;17254;50.976;7.034;2022-11-20T00:23:36;20.88;;;15.55;;
30458;SDS011;17254;50.976;7.034;2022-11-20T00:23:42;20.60;;;15.45;;
30458;SDS011;17254;50.976;7.034;2022-11-20T00:23:49;20.57;;;15.83;;
30458;SDS011;17254;50.976;7.034;2022-11-20T00:23:56;21.04;;;15.86;;
30458;SDS011;17254;50.976;7.034;2022-11-20T00:24:02;21.58;;;15.90;;
30458;SDS011;17254;50.976;7.034;2022-11-20T00:24:09;21.18;;;15.37;;
30458;SDS011;17254;50.976;7.034;2022-11-20T00:24:15;21.08;;;15.15;;
30458;SDS011;17254;50.976;7.034;2022-11-20T00:24:21;21.17;;;15.03;;
30458;SDS011;17254;50.976;7.034;2022-11-20T00:24:27;20.85;;;14.88;;
30458;SDS011;17254;50.976;7.034;2022-11-20T00:24:33;20.90;;;14.88;;
30458;SDS011;17254;50.976;7.034;2022-11-20T00:24:39;20.85;;;15.18;;
30458;SDS011;17254;50.976;7.034;2022-11-20T00:24:45;21.20;;;15.43;;
30458;SDS011;17254;50.976;7.034;2022-11-20T00:24:51;21.30;;;15.52;;
30458;SDS011;17254;50.976;7.034;2022-11-20T00:24:57;21.63;;;15.70;;
30458;SDS011;17254;50.976;7.034;2022-11-20T00:25:03;22.07;;;16.17;;
30458;SDS011;17254;50.976;7.034;2022-11-20T00:25:09;22.83;;;16.40;;
30458;SDS011;17254;50.976;7.034;2022-11-20T00:25:16;23.24;;;16.34;;
30458;SDS011;17254;50.976;7.034;2022-11-20T00:25:22;23.75;;;16.20;;
30458;SDS011;17254;50.976;7.034;2022-11-20T00:25:29;24.37;;;16.30;;
30458;SDS011;17254;50.976;7.034;2022-11-20T00:25:35;24.25;;;15.95;;
30458;SDS011;17254;50.976;7.034;2022-11-20T00:25:41;23.67;;;15.65;;
30458;SDS011;17254;50.976;7.034;2022-11-20T00:25:47;23.27;;;15.63;;
30458;SDS011;17254;50.976;7.034;2022-11-20T00:25:53;22.55;;;15.70;;
30458;SDS011;17254;50.976;7.034;2022-11-20T00:26:01;21.05;;;15.05;;
30458;SDS011;17254;50.976;7.034;2022-11-20T00:26:09;20.47;;;15.13;;
30458;SDS011;17254;50.976;7.034;2022-11-20T00:26:16;20.58;;;15.03;;
30458;SDS011;17254;50.976;7.034;2022-11-20T00:26:24;20.46;;;15.02;;
30458;SDS011;17254;50.976;7.034;2022-11-20T00:26:31;20.87;;;15.70;;
30458;SDS011;17254;50.976;7.034;2022-11-20T00:26:37;20.98;;;15.68;;
30458;SDS011;17254;50.976;7.034;2022-11-20T00:26:43;20.85;;;15.55;;
30458;SDS011;17254;50.976;7.034;2022-11-20T00:26:49;20.73;;;15.75;;
30458;SDS011;17254;50.976;7.034;2022-11-20T00:26:55;20.77;;;15.83;;
30458;SDS011;17254;50.976;7.034;2022-11-20T00:27:01;21.55;;;15.55;;
30458;SDS011;17254;50.976;7.034;2022-11-20T00:27:07;21.77;;;15.63;;
30458;SDS011;17254;50.976;7.034;2022-11-20T00:27:14;21.88;;;15.74;;
30458;SDS011;17254;50.976;7.034;2022-11-20T00:27:20;21.83;;;15.38;;
30458;SDS011;17254;50.976;7.034;2022-11-20T00:27:26;22.00;;;15.27;;
30458;SDS011;17254;50.976;7.034;2022-11-20T00:27:32;20.80;;;14.90;;
30458;SDS011;17254;50.976;7.034;2022-11-20T00:27:38;20.80;;;14.95;;
30458;SDS011;17254;50.976;7.034;2022-11-20T00:27:44;21.35;;;15.00;;
30458;SDS011;17254;50.976;7.034;2022-11-20T00:27:50;21.98;;;15.02;;
30458;SDS011;17254;50.976;7.034;2022-11-20T00:27:56;22.27;;;15.02;;
30458;SDS011;17254;50.976;7.034;2022-11-20T00:28:02;23.15;;;15.52;;
30458;SDS011;17254;50.976;7.034;2022-11-20T00:28:08;22.60;;;15.33;;
30458;SDS011;17254;50.976;7.034;2022-11-20T00:28:14;21.70;;;15.40;;
30458;SDS011;17254;50.976;7.034;2022-11-20T00:28:20;21.75;;;15.57;;
30458;SDS011;17254;50.976;7.034;2022-11-20T00:28:26;21.88;;;15.77;;
30458;SDS011;17254;50.976;7.034;2022-11-20T00:28:32;21.88;;;15.68;;
30458;SDS011;17254;50.976;7.034;2022-11-20T00:28:38;22.77;;;16.00;;
30458;SDS011;17254;50.976;7.034;2022-11-20T00:28:48;23.37;;;16.33;;
30458;SDS011;17254;50.976;7.034;2022-11-20T00:28:56;22.63;;;15.83;;
30458;SDS011;17254;50.976;7.034;2022-11-20T00:29:03;21.97;;;15.53;;
30458;SDS011;17254;50.976;7.034;2022-11-20T00:29:09;21.92;;;15.43;;
30458;SDS011;17254;50.976;7.034;2022-11-20T00:29:16;21.67;;;15.23;;
30458;SDS011;17254;50.976;7.034;2022-11-20T00:29:21;21.50;;;15.32;;
30458;SDS011;17254;50.976;7.034;2022-11-20T00:29:27;21.60;;;15.30;;
30458;SDS011;17254;50.976;7.034;2022-11-20T00:29:34;21.73;;;15.23;;
30458;SDS011;17254;50.976;7.034;2022-11-20T00:29:40;21.90;;;15.20;;
30458;SDS011;17254;50.976;7.034;2022-11-20T00:29:46;22.02;;;15.10;;
30458;SDS011;17254;50.976;7.034;2022-11-20T00:29:52;21.67;;;15.23;;
30458;SDS011;17254;50.976;7.034;2022-11-20T00:29:59;21.60;;;15.52;;
30458;SDS011;17254;50.976;7.034;2022-11-20T00:30:05;21.45;;;15.60;;
30458;SDS011;17254;50.976;7.034;2022-11-20T00:30:12;21.20;;;15.65;;
30458;SDS011;17254;50.976;7.034;2022-11-20T00:30:18;21.30;;;15.60;;
30458;SDS011;17254;50.976;7.034;2022-11-20T00:30:24;21.17;;;15.32;;
30458;SDS011;17254;50.976;7.034;2022-11-20T00:30:30;20.83;;;15.20;;
30458;SDS011;17254;50.976;7.034;2022-11-20T00:30:36;21.85;;;15.30;;
30458;SDS011;17254;50.976;7.034;2022-11-20T00:30:42;21.70;;;14.93;;
30458;SDS011;17254;50.976;7.034;2022-11-20T00:30:48;21.92;;;15.18;;
30458;SDS011;17254;50.976;7.034;2022-11-20T00:30:59;22.03;;;15.20;;
30458;SDS011;17254;50.976;7.034;2022-11-20T00:31:08;22.73;;;15.43;;
30458;SDS011;17254;50.976;7.034;2022-11-20T00:31:15;21.70;;;15.43;;
30458;SDS011;17254;50.976;7.034;2022-11-20T00:31:21;21.36;;;15.48;;
30458;SDS011;17254;50.976;7.034;2022-11-20T00:31:29;20.97;;;15.43;;
30458;SDS011;17254;50.976;7.034;2022-11-20T00:31:35;20.85;;;15.35;;
30458;SDS011;17254;50.976;7.034;2022-11-20T00:31:42;20.60;;;15.15;;
30458;SDS011;17254;50.976;7.034;2022-11-20T00:31:47;21.67;;;15.27;;
30458;SDS011;17254;50.976;7.034;2022-11-20T00:31:53;21.50;;;14.82;;
30458;SDS011;17254;50.976;7.034;2022-11-20T00:31:59;21.70;;;14.63;;
30458;SDS011;17254;50.976;7.034;2022-11-20T00:32:05;21.77;;;14.88;;
30458;SDS011;17254;50.976;7.034;2022-11-20T00:32:11;22.33;;;14.98;;
30458;SDS011;17254;50.976;7.034;2022-11-20T00:32:17;21.63;;;15.07;;
30458;SDS011;17254;50.976;7.034;2022-11-20T00:32:23;21.70;;;15.20;;
30458;SDS011;17254;50.976;7.034;2022-11-20T00:32:29;21.55;;;15.43;;
30458;SDS011;17254;50.976;7.034;2022-11-20T00:32:36;21.93;;;15.17;;
30458;SDS011;17254;50.976;7.034;2022-11-20T00:32:42;21.77;;;15.05;;
30458;SDS011;17254;50.976;7.034;2022-11-20T00:32:48;22.10;;;15.10;;
30458;SDS011;17254;50.976;7.034;2022-11-20T00:32:55;22.63;;;14.98;;
30458;SDS011;17254;50.976;7.034;2022-11-20T00:33:02;22.30;;;15.10;;
30458;SDS011;17254;50.976;7.034;2022-11-20T00:33:08;22.02;;;15.05;;
30458;SDS011;17254;50.976;7.034;2022-11-20T00:33:14;21.35;;;15.07;;
30458;SDS011;17254;50.976;7.034;2022-11-20T00:33:19;21.30;;;14.98;;
30458;SDS011;17254;50.976;7.034;2022-11-20T00:33:25;20.97;;;14.87;;
30458;SDS011;17254;50.976;7.034;2022-11-20T00:33:32;20.73;;;14.87;;
30458;SDS011;17254;50.976;7.034;2022-11-20T00:33:38;20.40;;;14.77;;
30458;SDS011;17254;50.976;7.034;2022-11-20T00:33:45;20.75;;;14.63;;
30458;SDS011;17254;50.976;7.034;2022-11-20T00:33:51;20.47;;;14.80;;
30458;SDS011;17254;50.976;7.034;2022-11-20T00:33:59;19.90;;;14.72;;
30458;SDS011;17254;50.976;7.034;2022-11-20T00:34:05;19.92;;;14.77;;
30458;SDS011;17254;50.976;7.034;2022-11-20T00:34:11;20.58;;;15.05;;
30458;SDS011;17254;50.976;7.034;2022-11-20T00:34:17;21.13;;;15.02;;
30458;SDS011;17254;50.976;7.034;2022-11-20T00:34:23;21.23;;;14.93;;
30458;SDS011;17254;50.976;7.034;2022-11-20T00:34:29;21.60;;;14.77;;
30458;SDS011;17254;50.976;7.034;2022-11-20T00:34:35;20.93;;;14.43;;
30458;SDS011;17254;50.976;7.034;2022-11-20T00:34:41;20.60;;;14.60;;
30458;SDS011;17254;50.976;7.034;2022-11-20T00:34:47;20.13;;;14.65;;
30458;SDS011;17254;50.976;7.034;2022-11-20T00:34:52;20.38;;;14.68;;
30458;SDS011;17254;50.976;7.034;2022-11-20T00:34:58;20.40;;;14.83;;
30458;SDS011;17254;50.976;7.034;2022-11-20T00:35:04;21.55;;;15.13;;
30458;SDS011;17254;50.976;7.034;2022-11-20T00:35:10;21.80;;;15.00;;
30458;SDS011;17254;50.976;7.034;2022-11-20T00:35:17;22.24;;;15.46;;
30458;SDS011;17254;50.976;7.034;2022-11-20T00:35:24;22.07;;;15.67;;
30458;SDS011;17254;50.976;7.034;2022-11-20T00:35:30;22.40;;;15.53;;
30458;SDS011;17254;50.976;7.034;2022-11-20T00:35:35;21.38;;;15.05;;
30458;SDS011;17254;50.976;7.034;2022-11-20T00:35:41;22.08;;;15.18;;
30458;SDS011;17254;50.976;7.034;2022-11-20T00:35:47;21.63;;;15.02;;
30458;SDS011;17254;50.976;7.034;2022-11-20T00:35:53;21.20;;;14.73;;
30458;SDS011;17254;50.976;7.034;2022-11-20T00:36:05;21.27;;;15.03;;
30458;SDS011;17254;50.976;7.034;2022-11-20T00:36:13;20.50;;;14.84;;
30458;SDS011;17254;50.976;7.034;2022-11-20T00:36:21;21.30;;;14.83;;
30458;SDS011;17254;50.976;7.034;2022-11-20T00:36:31;21.70;;;15.10;;
30458;SDS011;17254;50.976;7.034;2022-11-20T00:36:39;22.66;;;15.15;;
30458;SDS011;17254;50.976;7.034;2022-11-20T00:36:45;22.83;;;15.50;;
30458;SDS011;17254;50.976;7.034;2022-11-20T00:36:51;22.88;;;15.68;;
30458;SDS011;17254;50.976;7.034;2022-11-20T00:36:57;22.88;;;15.70;;
30458;SDS011;17254;50.976;7.034;2022-11-20T00:37:03;22.10;;;15.55;;
30458;SDS011;17254;50.976;7.034;2022-11-20T00:37:09;21.73;;;15.65;;
30458;SDS011;17254;50.976;7.034;2022-11-20T00:37:15;21.88;;;15.63;;
30458;SDS011;17254;50.976;7.034;2022-11-20T00:37:21;21.75;;;15.82;;
30458;SDS011;17254;50.976;7.034;2022-11-20T00:37:28;21.60;;;16.00;;
30458;SDS011;17254;50.976;7.034;2022-11-20T00:37:33;22.08;;;16.23;;
30458;SDS011;17254;50.976;7.034;2022-11-20T00:37:39;22.30;;;16.42;;
30458;SDS011;17254;50.976;7.034;2022-11-20T00:37:45;21.38;;;15.82;;
30458;SDS011;17254;50.976;7.034;2022-11-20T00:37:51;20.85;;;15.43;;